sensor_id;sensor_type;location;lat;lon;timestamp;P1;durP1;ratioP1;P2;durP2;ratioP2
61248;SDS011;47119;49.130;9.218;2022-09-23T00:01:34;0.68;;;0.68;;
61248;SDS011;47119;49.130;9.218;2022-09-23T00:04:02;0.63;;;0.63;;
61248;SDS011;47119;49.130;9.218;2022-09-23T00:06:29;1.83;;;1.38;;
61248;SDS011;47119;49.130;9.218;2022-09-23T00:08:56;0.85;;;0.85;;
61248;SDS011;47119;49.130;9.218;2022-09-23T00:11:26;2.55;;;2.10;;
61248;SDS011;47119;49.130;9.218;2022-09-23T00:13:54;0.57;;;0.57;;
61248;SDS011;47119;49.130;9.218;2022-09-23T00:16:25;0.82;;;0.82;;
61248;SDS011;47119;49.130;9.218;2022-09-23T00:18:57;0.32;;;0.32;;
61248;SDS011;47119;49.130;9.218;2022-09-23T00:21:27;0.50;;;0.50;;
61248;SDS011;47119;49.130;9.218;2022-09-23T00:23:58;0.90;;;0.90;;
61248;SDS011;47119;49.130;9.218;2022-09-23T00:26:31;0.65;;;0.65;;
61248;SDS011;47119;49.130;9.218;2022-09-23T00:28:59;0.90;;;0.90;;
61248;SDS011;47119;49.130;9.218;2022-09-23T00:31:27;0.65;;;0.65;;
61248;SDS011;47119;49.130;9.218;2022-09-23T00:33:56;1.23;;;1.23;;
61248;SDS011;47119;49.130;9.218;2022-09-23T00:36:25;0.55;;;0.55;;
61248;SDS011;47119;49.130;9.218;2022-09-23T00:38:54;1.10;;;1.10;;
61248;SDS011;47119;49.130;9.218;2022-09-23T00:41:24;1.48;;;1.38;;
61248;SDS011;47119;49.130;9.218;2022-09-23T00:43:54;0.50;;;0.50;;
61248;SDS011;47119;49.130;9.218;2022-09-23T00:46:25;1.08;;;1.08;;
61248;SDS011;47119;49.130;9.218;2022-09-23T00:49:03;1.40;;;1.33;;
61248;SDS011;47119;49.130;9.218;2022-09-23T00:51:37;4.32;;;1.33;;
61248;SDS011;47119;49.130;9.218;2022-09-23T00:54:16;0.95;;;0.95;;
61248;SDS011;47119;49.130;9.218;2022-09-23T00:56:45;1.00;;;0.98;;
61248;SDS011;47119;49.130;9.218;2022-09-23T00:59:13;0.60;;;0.60;;
61248;SDS011;47119;49.130;9.218;2022-09-23T01:01:41;1.58;;;1.58;;
61248;SDS011;47119;49.130;9.218;2022-09-23T01:04:09;0.63;;;0.63;;
61248;SDS011;47119;49.130;9.218;2022-09-23T01:06:39;1.15;;;1.15;;
61248;SDS011;47119;49.130;9.218;2022-09-23T01:09:06;0.95;;;0.95;;
61248;SDS011;47119;49.130;9.218;2022-09-23T01:11:37;0.85;;;0.85;;
61248;SDS011;47119;49.130;9.218;2022-09-23T01:14:19;0.63;;;0.63;;
61248;SDS011;47119;49.130;9.218;2022-09-23T01:17:07;0.85;;;0.85;;
61248;SDS011;47119;49.130;9.218;2022-09-23T01:23:14;0.30;;;0.30;;
61248;SDS011;47119;49.130;9.218;2022-09-23T01:26:27;0.60;;;0.60;;
61248;SDS011;47119;49.130;9.218;2022-09-23T01:29:25;0.73;;;0.73;;
61248;SDS011;47119;49.130;9.218;2022-09-23T01:32:31;0.45;;;0.45;;
61248;SDS011;47119;49.130;9.218;2022-09-23T01:35:17;0.60;;;0.60;;
61248;SDS011;47119;49.130;9.218;2022-09-23T01:37:56;0.70;;;0.70;;
61248;SDS011;47119;49.130;9.218;2022-09-23T01:40:37;0.77;;;0.77;;
61248;SDS011;47119;49.130;9.218;2022-09-23T01:43:18;0.73;;;0.73;;
61248;SDS011;47119;49.130;9.218;2022-09-23T01:45:52;1.48;;;1.17;;
61248;SDS011;47119;49.130;9.218;2022-09-23T01:48:26;1.45;;;0.88;;
61248;SDS011;47119;49.130;9.218;2022-09-23T01:51:03;0.68;;;0.68;;
61248;SDS011;47119;49.130;9.218;2022-09-23T01:53:38;0.80;;;0.80;;
61248;SDS011;47119;49.130;9.218;2022-09-23T01:56:16;0.70;;;0.70;;
61248;SDS011;47119;49.130;9.218;2022-09-23T01:58:54;0.68;;;0.68;;
61248;SDS011;47119;49.130;9.218;2022-09-23T02:01:36;0.73;;;0.73;;
61248;SDS011;47119;49.130;9.218;2022-09-23T02:04:12;0.43;;;0.43;;
61248;SDS011;47119;49.130;9.218;2022-09-23T02:06:47;1.00;;;1.00;;
61248;SDS011;47119;49.130;9.218;2022-09-23T02:09:23;0.60;;;0.60;;
61248;SDS011;47119;49.130;9.218;2022-09-23T02:12:01;0.52;;;0.52;;
61248;SDS011;47119;49.130;9.218;2022-09-23T02:14:41;0.70;;;0.70;;
61248;SDS011;47119;49.130;9.218;2022-09-23T02:17:15;3.55;;;1.60;;
61248;SDS011;47119;49.130;9.218;2022-09-23T02:19:56;0.82;;;0.82;;
61248;SDS011;47119;49.130;9.218;2022-09-23T02:22:31;0.70;;;0.70;;
61248;SDS011;47119;49.130;9.218;2022-09-23T02:25:07;0.60;;;0.60;;
61248;SDS011;47119;49.130;9.218;2022-09-23T02:27:38;0.98;;;0.95;;
61248;SDS011;47119;49.130;9.218;2022-09-23T02:30:16;1.25;;;1.25;;
61248;SDS011;47119;49.130;9.218;2022-09-23T02:32:53;1.15;;;1.05;;
61248;SDS011;47119;49.130;9.218;2022-09-23T02:35:33;1.80;;;1.30;;
61248;SDS011;47119;49.130;9.218;2022-09-23T02:38:15;4.40;;;1.13;;
61248;SDS011;47119;49.130;9.218;2022-09-23T02:40:56;0.57;;;0.57;;
61248;SDS011;47119;49.130;9.218;2022-09-23T02:43:34;0.82;;;0.82;;
61248;SDS011;47119;49.130;9.218;2022-09-23T02:46:11;0.90;;;0.90;;
61248;SDS011;47119;49.130;9.218;2022-09-23T02:48:40;0.80;;;0.80;;
61248;SDS011;47119;49.130;9.218;2022-09-23T02:51:17;1.15;;;1.00;;
61248;SDS011;47119;49.130;9.218;2022-09-23T02:53:45;1.02;;;1.02;;
61248;SDS011;47119;49.130;9.218;2022-09-23T02:56:13;1.58;;;1.15;;
61248;SDS011;47119;49.130;9.218;2022-09-23T02:58:45;0.60;;;0.60;;
61248;SDS011;47119;49.130;9.218;2022-09-23T03:01:15;0.95;;;0.95;;
61248;SDS011;47119;49.130;9.218;2022-09-23T03:04:06;1.60;;;1.00;;
61248;SDS011;47119;49.130;9.218;2022-09-23T03:06:48;0.77;;;0.77;;
61248;SDS011;47119;49.130;9.218;2022-09-23T03:09:27;0.52;;;0.52;;
61248;SDS011;47119;49.130;9.218;2022-09-23T03:12:04;0.68;;;0.68;;
61248;SDS011;47119;49.130;9.218;2022-09-23T03:14:44;0.80;;;0.80;;
61248;SDS011;47119;49.130;9.218;2022-09-23T03:17:28;1.67;;;1.50;;
61248;SDS011;47119;49.130;9.218;2022-09-23T03:20:05;0.82;;;0.82;;
61248;SDS011;47119;49.130;9.218;2022-09-23T03:22:44;1.73;;;1.63;;
61248;SDS011;47119;49.130;9.218;2022-09-23T03:25:21;0.80;;;0.80;;
61248;SDS011;47119;49.130;9.218;2022-09-23T03:27:57;2.00;;;1.17;;
61248;SDS011;47119;49.130;9.218;2022-09-23T03:30:27;1.17;;;1.08;;
61248;SDS011;47119;49.130;9.218;2022-09-23T03:32:59;1.70;;;1.17;;
61248;SDS011;47119;49.130;9.218;2022-09-23T03:35:32;0.70;;;0.70;;
61248;SDS011;47119;49.130;9.218;2022-09-23T03:38:24;0.70;;;0.70;;
61248;SDS011;47119;49.130;9.218;2022-09-23T03:41:00;0.60;;;0.60;;
61248;SDS011;47119;49.130;9.218;2022-09-23T03:43:32;1.10;;;0.88;;
61248;SDS011;47119;49.130;9.218;2022-09-23T03:46:01;2.45;;;1.75;;
61248;SDS011;47119;49.130;9.218;2022-09-23T03:48:29;1.70;;;1.60;;
61248;SDS011;47119;49.130;9.218;2022-09-23T03:50:59;1.65;;;1.17;;
61248;SDS011;47119;49.130;9.218;2022-09-23T03:53:46;0.80;;;0.80;;
61248;SDS011;47119;49.130;9.218;2022-09-23T03:56:16;0.80;;;0.80;;
61248;SDS011;47119;49.130;9.218;2022-09-23T03:58:50;0.82;;;0.82;;
61248;SDS011;47119;49.130;9.218;2022-09-23T04:01:20;1.38;;;1.38;;
61248;SDS011;47119;49.130;9.218;2022-09-23T04:03:52;0.65;;;0.65;;
61248;SDS011;47119;49.130;9.218;2022-09-23T04:06:21;1.52;;;1.45;;
61248;SDS011;47119;49.130;9.218;2022-09-23T04:08:52;1.45;;;1.38;;
61248;SDS011;47119;49.130;9.218;2022-09-23T04:11:28;1.13;;;1.08;;
61248;SDS011;47119;49.130;9.218;2022-09-23T04:13:55;1.02;;;1.00;;
61248;SDS011;47119;49.130;9.218;2022-09-23T04:16:22;1.35;;;1.05;;
61248;SDS011;47119;49.130;9.218;2022-09-23T04:18:50;1.33;;;1.20;;
61248;SDS011;47119;49.130;9.218;2022-09-23T04:21:19;0.73;;;0.73;;
61248;SDS011;47119;49.130;9.218;2022-09-23T04:23:47;1.55;;;1.08;;
61248;SDS011;47119;49.130;9.218;2022-09-23T04:26:15;1.30;;;1.30;;
61248;SDS011;47119;49.130;9.218;2022-09-23T04:28:43;1.33;;;1.27;;
61248;SDS011;47119;49.130;9.218;2022-09-23T04:31:10;0.95;;;0.95;;
61248;SDS011;47119;49.130;9.218;2022-09-23T04:33:38;1.50;;;1.20;;
61248;SDS011;47119;49.130;9.218;2022-09-23T04:36:05;1.17;;;1.17;;
61248;SDS011;47119;49.130;9.218;2022-09-23T04:38:33;1.50;;;1.40;;
61248;SDS011;47119;49.130;9.218;2022-09-23T04:41:02;1.00;;;1.00;;
61248;SDS011;47119;49.130;9.218;2022-09-23T04:43:31;1.38;;;1.27;;
61248;SDS011;47119;49.130;9.218;2022-09-23T04:46:01;2.38;;;1.35;;
61248;SDS011;47119;49.130;9.218;2022-09-23T04:48:34;1.20;;;1.10;;
61248;SDS011;47119;49.130;9.218;2022-09-23T04:51:03;0.68;;;0.68;;
61248;SDS011;47119;49.130;9.218;2022-09-23T04:53:33;1.05;;;1.05;;
61248;SDS011;47119;49.130;9.218;2022-09-23T04:56:01;1.10;;;1.05;;
61248;SDS011;47119;49.130;9.218;2022-09-23T04:58:34;1.08;;;0.98;;
61248;SDS011;47119;49.130;9.218;2022-09-23T05:01:09;0.90;;;0.90;;
61248;SDS011;47119;49.130;9.218;2022-09-23T05:03:39;0.75;;;0.75;;
61248;SDS011;47119;49.130;9.218;2022-09-23T05:06:08;0.98;;;0.98;;
61248;SDS011;47119;49.130;9.218;2022-09-23T05:08:38;0.90;;;0.85;;
61248;SDS011;47119;49.130;9.218;2022-09-23T05:11:05;3.15;;;1.90;;
61248;SDS011;47119;49.130;9.218;2022-09-23T05:13:35;0.52;;;0.52;;
61248;SDS011;47119;49.130;9.218;2022-09-23T05:16:03;1.27;;;1.17;;
61248;SDS011;47119;49.130;9.218;2022-09-23T05:18:37;1.00;;;1.00;;
61248;SDS011;47119;49.130;9.218;2022-09-23T05:21:09;0.85;;;0.85;;
61248;SDS011;47119;49.130;9.218;2022-09-23T05:23:39;1.63;;;1.52;;
61248;SDS011;47119;49.130;9.218;2022-09-23T05:26:08;0.98;;;0.98;;
61248;SDS011;47119;49.130;9.218;2022-09-23T05:28:42;1.45;;;1.35;;
61248;SDS011;47119;49.130;9.218;2022-09-23T05:31:10;3.85;;;0.98;;
61248;SDS011;47119;49.130;9.218;2022-09-23T05:33:41;1.10;;;1.10;;
61248;SDS011;47119;49.130;9.218;2022-09-23T05:36:11;0.70;;;0.70;;
61248;SDS011;47119;49.130;9.218;2022-09-23T05:38:41;1.05;;;1.05;;
61248;SDS011;47119;49.130;9.218;2022-09-23T05:41:11;1.50;;;1.40;;
61248;SDS011;47119;49.130;9.218;2022-09-23T05:43:39;0.57;;;0.57;;
61248;SDS011;47119;49.130;9.218;2022-09-23T05:46:09;1.48;;;1.40;;
61248;SDS011;47119;49.130;9.218;2022-09-23T05:48:38;1.48;;;1.38;;
61248;SDS011;47119;49.130;9.218;2022-09-23T05:51:12;3.33;;;1.67;;
61248;SDS011;47119;49.130;9.218;2022-09-23T05:53:41;2.20;;;2.10;;
61248;SDS011;47119;49.130;9.218;2022-09-23T05:56:12;2.80;;;1.95;;
61248;SDS011;47119;49.130;9.218;2022-09-23T05:58:43;1.70;;;1.60;;
61248;SDS011;47119;49.130;9.218;2022-09-23T06:01:18;1.35;;;1.25;;
61248;SDS011;47119;49.130;9.218;2022-09-23T06:03:51;0.98;;;0.98;;
61248;SDS011;47119;49.130;9.218;2022-09-23T06:06:26;0.70;;;0.70;;
61248;SDS011;47119;49.130;9.218;2022-09-23T06:08:56;2.53;;;1.08;;
61248;SDS011;47119;49.130;9.218;2022-09-23T06:11:25;1.15;;;1.15;;
61248;SDS011;47119;49.130;9.218;2022-09-23T06:13:56;4.55;;;1.92;;
61248;SDS011;47119;49.130;9.218;2022-09-23T06:16:26;1.08;;;1.08;;
61248;SDS011;47119;49.130;9.218;2022-09-23T06:18:55;2.08;;;1.35;;
61248;SDS011;47119;49.130;9.218;2022-09-23T06:21:29;1.08;;;1.08;;
61248;SDS011;47119;49.130;9.218;2022-09-23T06:23:58;0.95;;;0.95;;
61248;SDS011;47119;49.130;9.218;2022-09-23T06:26:26;1.17;;;1.10;;
61248;SDS011;47119;49.130;9.218;2022-09-23T06:28:59;0.60;;;0.60;;
61248;SDS011;47119;49.130;9.218;2022-09-23T06:31:28;0.52;;;0.52;;
61248;SDS011;47119;49.130;9.218;2022-09-23T06:33:56;0.90;;;0.90;;
61248;SDS011;47119;49.130;9.218;2022-09-23T06:36:23;0.70;;;0.70;;
61248;SDS011;47119;49.130;9.218;2022-09-23T06:38:53;1.75;;;1.48;;
61248;SDS011;47119;49.130;9.218;2022-09-23T06:41:23;0.90;;;0.90;;
61248;SDS011;47119;49.130;9.218;2022-09-23T06:43:52;0.60;;;0.60;;
61248;SDS011;47119;49.130;9.218;2022-09-23T06:46:21;0.85;;;0.85;;
61248;SDS011;47119;49.130;9.218;2022-09-23T06:48:48;1.42;;;1.40;;
61248;SDS011;47119;49.130;9.218;2022-09-23T06:51:17;1.65;;;0.77;;
61248;SDS011;47119;49.130;9.218;2022-09-23T06:53:46;0.95;;;0.95;;
61248;SDS011;47119;49.130;9.218;2022-09-23T06:56:13;1.05;;;1.05;;
61248;SDS011;47119;49.130;9.218;2022-09-23T06:58:47;2.63;;;1.02;;
61248;SDS011;47119;49.130;9.218;2022-09-23T07:01:17;0.77;;;0.77;;
61248;SDS011;47119;49.130;9.218;2022-09-23T07:03:46;0.60;;;0.60;;
61248;SDS011;47119;49.130;9.218;2022-09-23T07:06:15;0.88;;;0.88;;
61248;SDS011;47119;49.130;9.218;2022-09-23T07:08:43;0.90;;;0.90;;
61248;SDS011;47119;49.130;9.218;2022-09-23T07:11:12;1.23;;;1.23;;
61248;SDS011;47119;49.130;9.218;2022-09-23T07:13:45;1.40;;;1.33;;
61248;SDS011;47119;49.130;9.218;2022-09-23T07:16:13;0.95;;;0.95;;
61248;SDS011;47119;49.130;9.218;2022-09-23T07:18:40;0.50;;;0.50;;
61248;SDS011;47119;49.130;9.218;2022-09-23T07:21:12;0.30;;;0.30;;
61248;SDS011;47119;49.130;9.218;2022-09-23T07:23:41;0.60;;;0.60;;
61248;SDS011;47119;49.130;9.218;2022-09-23T07:26:10;0.63;;;0.63;;
61248;SDS011;47119;49.130;9.218;2022-09-23T07:28:37;2.13;;;1.20;;
61248;SDS011;47119;49.130;9.218;2022-09-23T07:31:06;0.85;;;0.85;;
61248;SDS011;47119;49.130;9.218;2022-09-23T07:33:38;0.20;;;0.20;;
61248;SDS011;47119;49.130;9.218;2022-09-23T07:36:09;0.40;;;0.40;;
61248;SDS011;47119;49.130;9.218;2022-09-23T07:38:41;0.77;;;0.77;;
61248;SDS011;47119;49.130;9.218;2022-09-23T07:41:10;0.25;;;0.25;;
61248;SDS011;47119;49.130;9.218;2022-09-23T07:43:39;0.40;;;0.40;;
61248;SDS011;47119;49.130;9.218;2022-09-23T07:46:07;0.98;;;0.77;;
61248;SDS011;47119;49.130;9.218;2022-09-23T07:48:39;2.47;;;1.15;;
61248;SDS011;47119;49.130;9.218;2022-09-23T07:51:07;0.45;;;0.45;;
61248;SDS011;47119;49.130;9.218;2022-09-23T07:53:38;0.50;;;0.50;;
61248;SDS011;47119;49.130;9.218;2022-09-23T07:56:05;0.52;;;0.47;;
61248;SDS011;47119;49.130;9.218;2022-09-23T07:58:34;0.52;;;0.52;;
61248;SDS011;47119;49.130;9.218;2022-09-23T08:01:04;0.35;;;0.35;;
61248;SDS011;47119;49.130;9.218;2022-09-23T08:03:34;0.20;;;0.20;;
61248;SDS011;47119;49.130;9.218;2022-09-23T08:06:04;0.47;;;0.47;;
61248;SDS011;47119;49.130;9.218;2022-09-23T08:08:34;0.38;;;0.38;;
61248;SDS011;47119;49.130;9.218;2022-09-23T08:11:06;0.15;;;0.15;;
61248;SDS011;47119;49.130;9.218;2022-09-23T08:13:36;0.43;;;0.43;;
61248;SDS011;47119;49.130;9.218;2022-09-23T08:16:03;2.45;;;0.63;;
61248;SDS011;47119;49.130;9.218;2022-09-23T08:18:31;0.40;;;0.35;;
61248;SDS011;47119;49.130;9.218;2022-09-23T08:20:59;0.50;;;0.35;;
61248;SDS011;47119;49.130;9.218;2022-09-23T08:23:26;0.50;;;0.50;;
61248;SDS011;47119;49.130;9.218;2022-09-23T08:26:00;0.95;;;0.95;;
61248;SDS011;47119;49.130;9.218;2022-09-23T08:28:42;0.30;;;0.30;;
61248;SDS011;47119;49.130;9.218;2022-09-23T08:31:09;0.65;;;0.65;;
61248;SDS011;47119;49.130;9.218;2022-09-23T08:33:37;0.20;;;0.20;;
61248;SDS011;47119;49.130;9.218;2022-09-23T08:36:05;0.28;;;0.28;;
61248;SDS011;47119;49.130;9.218;2022-09-23T08:38:33;0.22;;;0.22;;
61248;SDS011;47119;49.130;9.218;2022-09-23T08:41:06;0.43;;;0.43;;
61248;SDS011;47119;49.130;9.218;2022-09-23T08:43:46;0.30;;;0.30;;
61248;SDS011;47119;49.130;9.218;2022-09-23T08:46:21;0.35;;;0.35;;
61248;SDS011;47119;49.130;9.218;2022-09-23T08:48:55;0.30;;;0.30;;
61248;SDS011;47119;49.130;9.218;2022-09-23T08:51:33;0.55;;;0.55;;
61248;SDS011;47119;49.130;9.218;2022-09-23T08:54:10;0.28;;;0.28;;
61248;SDS011;47119;49.130;9.218;2022-09-23T08:59:57;8.77;;;1.30;;
61248;SDS011;47119;49.130;9.218;2022-09-23T09:02:28;0.22;;;0.22;;
61248;SDS011;47119;49.130;9.218;2022-09-23T09:07:34;0.00;;;0.00;;
61248;SDS011;47119;49.130;9.218;2022-09-23T09:10:09;0.70;;;0.40;;
61248;SDS011;47119;49.130;9.218;2022-09-23T09:12:45;0.40;;;0.40;;
61248;SDS011;47119;49.130;9.218;2022-09-23T09:15:17;0.10;;;0.10;;
61248;SDS011;47119;49.130;9.218;2022-09-23T09:17:53;0.10;;;0.10;;
61248;SDS011;47119;49.130;9.218;2022-09-23T09:20:34;0.38;;;0.38;;
61248;SDS011;47119;49.130;9.218;2022-09-23T09:23:11;0.10;;;0.10;;
61248;SDS011;47119;49.130;9.218;2022-09-23T09:25:49;0.17;;;0.17;;
61248;SDS011;47119;49.130;9.218;2022-09-23T09:28:22;0.77;;;0.73;;
61248;SDS011;47119;49.130;9.218;2022-09-23T09:30:55;0.20;;;0.20;;
61248;SDS011;47119;49.130;9.218;2022-09-23T09:33:28;1.73;;;0.60;;
61248;SDS011;47119;49.130;9.218;2022-09-23T09:36:15;0.20;;;0.20;;
61248;SDS011;47119;49.130;9.218;2022-09-23T09:38:56;0.47;;;0.47;;
61248;SDS011;47119;49.130;9.218;2022-09-23T09:41:25;0.40;;;0.40;;
61248;SDS011;47119;49.130;9.218;2022-09-23T09:43:57;0.20;;;0.20;;
61248;SDS011;47119;49.130;9.218;2022-09-23T09:46:38;0.20;;;0.20;;
61248;SDS011;47119;49.130;9.218;2022-09-23T09:52:11;0.20;;;0.20;;
61248;SDS011;47119;49.130;9.218;2022-09-23T09:54:45;0.43;;;0.43;;
61248;SDS011;47119;49.130;9.218;2022-09-23T09:57:18;0.15;;;0.15;;
61248;SDS011;47119;49.130;9.218;2022-09-23T10:00:14;0.35;;;0.35;;
61248;SDS011;47119;49.130;9.218;2022-09-23T10:03:03;0.10;;;0.10;;
61248;SDS011;47119;49.130;9.218;2022-09-23T10:05:54;0.38;;;0.38;;
61248;SDS011;47119;49.130;9.218;2022-09-23T10:08:23;0.20;;;0.20;;
61248;SDS011;47119;49.130;9.218;2022-09-23T10:11:00;0.20;;;0.20;;
61248;SDS011;47119;49.130;9.218;2022-09-23T10:13:31;0.25;;;0.25;;
61248;SDS011;47119;49.130;9.218;2022-09-23T10:16:02;0.20;;;0.20;;
61248;SDS011;47119;49.130;9.218;2022-09-23T10:18:30;0.10;;;0.10;;
61248;SDS011;47119;49.130;9.218;2022-09-23T10:21:06;0.10;;;0.10;;
61248;SDS011;47119;49.130;9.218;2022-09-23T10:23:40;0.35;;;0.35;;
61248;SDS011;47119;49.130;9.218;2022-09-23T10:26:11;0.20;;;0.20;;
61248;SDS011;47119;49.130;9.218;2022-09-23T10:28:45;0.38;;;0.38;;
61248;SDS011;47119;49.130;9.218;2022-09-23T10:31:21;0.28;;;0.28;;
61248;SDS011;47119;49.130;9.218;2022-09-23T10:33:54;0.20;;;0.20;;
61248;SDS011;47119;49.130;9.218;2022-09-23T10:36:28;0.25;;;0.25;;
61248;SDS011;47119;49.130;9.218;2022-09-23T10:38:57;0.13;;;0.13;;
61248;SDS011;47119;49.130;9.218;2022-09-23T10:41:42;0.20;;;0.20;;
61248;SDS011;47119;49.130;9.218;2022-09-23T10:44:42;0.17;;;0.17;;
61248;SDS011;47119;49.130;9.218;2022-09-23T10:47:50;0.30;;;0.30;;
61248;SDS011;47119;49.130;9.218;2022-09-23T10:50:34;0.30;;;0.30;;
61248;SDS011;47119;49.130;9.218;2022-09-23T10:53:11;0.52;;;0.52;;
61248;SDS011;47119;49.130;9.218;2022-09-23T10:55:55;0.10;;;0.10;;
61248;SDS011;47119;49.130;9.218;2022-09-23T10:58:47;0.32;;;0.32;;
61248;SDS011;47119;49.130;9.218;2022-09-23T11:01:45;0.17;;;0.17;;
61248;SDS011;47119;49.130;9.218;2022-09-23T11:07:46;0.40;;;0.40;;
61248;SDS011;47119;49.130;9.218;2022-09-23T11:13:39;0.22;;;0.22;;
61248;SDS011;47119;49.130;9.218;2022-09-23T11:16:23;1.75;;;0.93;;
61248;SDS011;47119;49.130;9.218;2022-09-23T11:19:20;0.40;;;0.40;;
61248;SDS011;47119;49.130;9.218;2022-09-23T11:22:23;0.50;;;0.50;;
61248;SDS011;47119;49.130;9.218;2022-09-23T11:25:17;0.32;;;0.32;;
61248;SDS011;47119;49.130;9.218;2022-09-23T11:28:12;0.70;;;0.57;;
61248;SDS011;47119;49.130;9.218;2022-09-23T11:31:02;0.22;;;0.22;;
61248;SDS011;47119;49.130;9.218;2022-09-23T11:33:50;0.20;;;0.20;;
61248;SDS011;47119;49.130;9.218;2022-09-23T11:36:45;0.15;;;0.13;;
61248;SDS011;47119;49.130;9.218;2022-09-23T11:39:26;0.00;;;0.00;;
61248;SDS011;47119;49.130;9.218;2022-09-23T11:42:02;0.00;;;0.00;;
61248;SDS011;47119;49.130;9.218;2022-09-23T11:44:40;0.75;;;0.68;;
61248;SDS011;47119;49.130;9.218;2022-09-23T11:47:15;0.22;;;0.22;;
61248;SDS011;47119;49.130;9.218;2022-09-23T11:49:51;2.47;;;0.57;;
61248;SDS011;47119;49.130;9.218;2022-09-23T11:52:28;0.55;;;0.52;;
61248;SDS011;47119;49.130;9.218;2022-09-23T11:55:05;0.22;;;0.22;;
61248;SDS011;47119;49.130;9.218;2022-09-23T11:57:44;0.32;;;0.32;;
61248;SDS011;47119;49.130;9.218;2022-09-23T12:00:19;0.50;;;0.50;;
61248;SDS011;47119;49.130;9.218;2022-09-23T12:02:53;0.10;;;0.10;;
61248;SDS011;47119;49.130;9.218;2022-09-23T12:05:34;1.00;;;0.68;;
61248;SDS011;47119;49.130;9.218;2022-09-23T12:08:06;0.52;;;0.30;;
61248;SDS011;47119;49.130;9.218;2022-09-23T12:10:44;0.20;;;0.20;;
61248;SDS011;47119;49.130;9.218;2022-09-23T12:13:33;0.10;;;0.10;;
61248;SDS011;47119;49.130;9.218;2022-09-23T12:19:36;0.40;;;0.30;;
61248;SDS011;47119;49.130;9.218;2022-09-23T12:22:29;0.00;;;0.00;;
61248;SDS011;47119;49.130;9.218;2022-09-23T12:25:22;0.30;;;0.30;;
61248;SDS011;47119;49.130;9.218;2022-09-23T12:28:02;0.00;;;0.00;;
61248;SDS011;47119;49.130;9.218;2022-09-23T12:30:40;0.20;;;0.20;;
61248;SDS011;47119;49.130;9.218;2022-09-23T12:33:09;0.28;;;0.28;;
61248;SDS011;47119;49.130;9.218;2022-09-23T12:35:52;0.00;;;0.00;;
61248;SDS011;47119;49.130;9.218;2022-09-23T12:38:22;0.10;;;0.10;;
61248;SDS011;47119;49.130;9.218;2022-09-23T12:40:57;0.55;;;0.55;;
61248;SDS011;47119;49.130;9.218;2022-09-23T12:43:27;0.55;;;0.55;;
61248;SDS011;47119;49.130;9.218;2022-09-23T12:49:01;0.32;;;0.32;;
61248;SDS011;47119;49.130;9.218;2022-09-23T12:51:34;0.00;;;0.00;;
61248;SDS011;47119;49.130;9.218;2022-09-23T12:57:03;0.17;;;0.17;;
61248;SDS011;47119;49.130;9.218;2022-09-23T12:59:58;0.00;;;0.00;;
61248;SDS011;47119;49.130;9.218;2022-09-23T13:02:41;0.00;;;0.00;;
61248;SDS011;47119;49.130;9.218;2022-09-23T13:05:39;0.28;;;0.28;;
61248;SDS011;47119;49.130;9.218;2022-09-23T13:08:29;0.13;;;0.13;;
61248;SDS011;47119;49.130;9.218;2022-09-23T13:11:01;0.63;;;0.63;;
61248;SDS011;47119;49.130;9.218;2022-09-23T13:13:36;0.00;;;0.00;;
61248;SDS011;47119;49.130;9.218;2022-09-23T13:16:13;0.20;;;0.20;;
61248;SDS011;47119;49.130;9.218;2022-09-23T13:18:51;0.00;;;0.00;;
61248;SDS011;47119;49.130;9.218;2022-09-23T13:24:34;0.10;;;0.10;;
61248;SDS011;47119;49.130;9.218;2022-09-23T13:27:19;0.25;;;0.25;;
61248;SDS011;47119;49.130;9.218;2022-09-23T13:29:54;0.00;;;0.00;;
61248;SDS011;47119;49.130;9.218;2022-09-23T13:32:27;0.20;;;0.20;;
61248;SDS011;47119;49.130;9.218;2022-09-23T13:34:59;0.20;;;0.20;;
61248;SDS011;47119;49.130;9.218;2022-09-23T13:37:37;0.10;;;0.10;;
61248;SDS011;47119;49.130;9.218;2022-09-23T13:40:20;0.08;;;0.08;;
61248;SDS011;47119;49.130;9.218;2022-09-23T13:42:54;0.10;;;0.10;;
61248;SDS011;47119;49.130;9.218;2022-09-23T13:47:58;0.00;;;0.00;;
61248;SDS011;47119;49.130;9.218;2022-09-23T13:50:36;0.00;;;0.00;;
61248;SDS011;47119;49.130;9.218;2022-09-23T13:53:07;0.17;;;0.17;;
61248;SDS011;47119;49.130;9.218;2022-09-23T13:55:38;0.10;;;0.10;;
61248;SDS011;47119;49.130;9.218;2022-09-23T13:58:13;0.30;;;0.30;;
61248;SDS011;47119;49.130;9.218;2022-09-23T14:00:44;0.10;;;0.10;;
61248;SDS011;47119;49.130;9.218;2022-09-23T14:03:22;0.10;;;0.10;;
61248;SDS011;47119;49.130;9.218;2022-09-23T14:05:52;1.00;;;0.30;;
61248;SDS011;47119;49.130;9.218;2022-09-23T14:08:22;0.10;;;0.10;;
61248;SDS011;47119;49.130;9.218;2022-09-23T14:10:50;0.20;;;0.20;;
61248;SDS011;47119;49.130;9.218;2022-09-23T14:13:25;0.25;;;0.25;;
61248;SDS011;47119;49.130;9.218;2022-09-23T14:15:56;0.00;;;0.00;;
61248;SDS011;47119;49.130;9.218;2022-09-23T14:18:31;0.10;;;0.10;;
61248;SDS011;47119;49.130;9.218;2022-09-23T14:21:03;0.15;;;0.15;;
61248;SDS011;47119;49.130;9.218;2022-09-23T14:23:33;0.40;;;0.20;;
61248;SDS011;47119;49.130;9.218;2022-09-23T14:26:00;0.30;;;0.30;;
61248;SDS011;47119;49.130;9.218;2022-09-23T14:28:30;0.00;;;0.00;;
61248;SDS011;47119;49.130;9.218;2022-09-23T14:30:58;0.20;;;0.20;;
61248;SDS011;47119;49.130;9.218;2022-09-23T14:33:26;0.00;;;0.00;;
61248;SDS011;47119;49.130;9.218;2022-09-23T14:36:02;0.10;;;0.10;;
61248;SDS011;47119;49.130;9.218;2022-09-23T14:39:00;0.10;;;0.10;;
61248;SDS011;47119;49.130;9.218;2022-09-23T14:41:32;0.20;;;0.20;;
61248;SDS011;47119;49.130;9.218;2022-09-23T14:44:04;0.10;;;0.10;;
61248;SDS011;47119;49.130;9.218;2022-09-23T14:46:33;0.47;;;0.47;;
61248;SDS011;47119;49.130;9.218;2022-09-23T14:49:04;0.52;;;0.50;;
61248;SDS011;47119;49.130;9.218;2022-09-23T14:51:43;0.10;;;0.10;;
61248;SDS011;47119;49.130;9.218;2022-09-23T14:54:29;0.10;;;0.10;;
61248;SDS011;47119;49.130;9.218;2022-09-23T14:57:03;0.10;;;0.10;;
61248;SDS011;47119;49.130;9.218;2022-09-23T14:59:52;0.35;;;0.35;;
61248;SDS011;47119;49.130;9.218;2022-09-23T15:02:30;6.77;;;1.03;;
61248;SDS011;47119;49.130;9.218;2022-09-23T15:05:13;0.10;;;0.10;;
61248;SDS011;47119;49.130;9.218;2022-09-23T15:07:46;0.17;;;0.17;;
61248;SDS011;47119;49.130;9.218;2022-09-23T15:10:18;0.15;;;0.15;;
61248;SDS011;47119;49.130;9.218;2022-09-23T15:12:49;0.55;;;0.55;;
61248;SDS011;47119;49.130;9.218;2022-09-23T15:15:20;0.73;;;0.73;;
61248;SDS011;47119;49.130;9.218;2022-09-23T15:18:00;0.63;;;0.63;;
61248;SDS011;47119;49.130;9.218;2022-09-23T15:20:32;0.25;;;0.25;;
61248;SDS011;47119;49.130;9.218;2022-09-23T15:23:01;0.13;;;0.13;;
61248;SDS011;47119;49.130;9.218;2022-09-23T15:25:33;0.00;;;0.00;;
61248;SDS011;47119;49.130;9.218;2022-09-23T15:28:15;0.13;;;0.13;;
61248;SDS011;47119;49.130;9.218;2022-09-23T15:30:47;0.70;;;0.63;;
61248;SDS011;47119;49.130;9.218;2022-09-23T15:33:15;0.22;;;0.22;;
61248;SDS011;47119;49.130;9.218;2022-09-23T15:35:44;0.40;;;0.40;;
61248;SDS011;47119;49.130;9.218;2022-09-23T15:38:13;0.00;;;0.00;;
61248;SDS011;47119;49.130;9.218;2022-09-23T15:40:45;0.10;;;0.10;;
61248;SDS011;47119;49.130;9.218;2022-09-23T15:43:14;0.10;;;0.10;;
61248;SDS011;47119;49.130;9.218;2022-09-23T15:45:43;0.00;;;0.00;;
61248;SDS011;47119;49.130;9.218;2022-09-23T15:48:15;0.43;;;0.40;;
61248;SDS011;47119;49.130;9.218;2022-09-23T15:50:47;0.43;;;0.43;;
61248;SDS011;47119;49.130;9.218;2022-09-23T15:53:18;0.30;;;0.30;;
61248;SDS011;47119;49.130;9.218;2022-09-23T15:55:49;0.20;;;0.20;;
61248;SDS011;47119;49.130;9.218;2022-09-23T15:58:16;0.15;;;0.15;;
61248;SDS011;47119;49.130;9.218;2022-09-23T16:00:44;0.30;;;0.30;;
61248;SDS011;47119;49.130;9.218;2022-09-23T16:03:18;0.28;;;0.28;;
61248;SDS011;47119;49.130;9.218;2022-09-23T16:05:50;0.38;;;0.38;;